createdAt,value
2022-12-03T00:00:56.825Z,83.08
2022-12-03T00:03:25.287Z,83.33
2022-12-03T00:05:53.735Z,83.19
2022-12-03T00:08:22.013Z,83.44
2022-12-03T00:10:50.016Z,82.72
2022-12-03T00:13:18.570Z,82.72
2022-12-03T00:15:46.757Z,82.24
2022-12-03T00:18:15.272Z,83.23
2022-12-03T00:20:43.247Z,83.47
2022-12-03T00:23:11.676Z,83.33
2022-12-03T00:25:39.768Z,82.71
2022-12-03T00:28:08.103Z,81.79
2022-12-03T00:30:36.207Z,81.23
2022-12-03T00:33:05.635Z,81.86
2022-12-03T00:35:33.583Z,81.93
2022-12-03T00:38:02.014Z,82.04
2022-12-03T00:40:30.102Z,81.79
2022-12-03T00:42:58.453Z,82.04
2022-12-03T00:45:26.496Z,81.85
2022-12-03T00:47:55.181Z,80.57
2022-12-03T00:50:23.614Z,80.52
2022-12-03T00:52:53.294Z,80.89
2022-12-03T00:55:21.392Z,81.31
2022-12-03T00:57:49.813Z,80.97
2022-12-03T01:00:18.232Z,81.47
2022-12-03T01:02:46.543Z,80.75
2022-12-03T01:05:14.658Z,80.84
2022-12-03T01:07:43.242Z,80.33
2022-12-03T01:10:11.854Z,80.54
2022-12-03T01:12:40.877Z,81.30
2022-12-03T01:15:10.063Z,81.12
2022-12-03T01:17:39.162Z,80.72
2022-12-03T01:20:09.851Z,80.93
2022-12-03T01:22:38.341Z,80.53
2022-12-03T01:25:07.133Z,79.36
2022-12-03T01:27:35.638Z,79.77
2022-12-03T01:30:05.645Z,79.44
2022-12-03T01:32:34.134Z,79.42
2022-12-03T01:35:02.133Z,79.63
2022-12-03T01:37:30.649Z,79.77
2022-12-03T01:39:58.686Z,80.05
2022-12-03T01:42:30.558Z,80.16
2022-12-03T01:45:00.734Z,79.88
2022-12-03T01:47:32.611Z,78.86
2022-12-03T01:50:08.731Z,79.05
2022-12-03T01:52:39.795Z,78.58
2022-12-03T01:55:15.049Z,77.64
2022-12-03T01:57:50.686Z,78.24
2022-12-03T02:00:22.336Z,78.22
2022-12-03T02:02:57.206Z,78.35
2022-12-03T02:05:31.482Z,78.30
2022-12-03T02:08:01.066Z,77.81
2022-12-03T02:10:36.474Z,78.24
2022-12-03T03:07:08.866Z,80.60
2022-12-03T03:09:37.895Z,80.33
2022-12-03T03:12:06.335Z,81.03
2022-12-03T03:14:35.746Z,79.77
2022-12-03T03:17:04.625Z,79.85
2022-12-03T03:19:34.516Z,80.01
2022-12-03T03:22:02.690Z,79.73
2022-12-03T03:24:31.046Z,79.76
2022-12-03T03:26:59.077Z,79.58
2022-12-03T03:29:27.556Z,79.62
2022-12-03T03:31:56.502Z,79.61
2022-12-03T03:34:25.738Z,80.12
2022-12-03T03:36:53.978Z,80.04
2022-12-03T03:39:22.850Z,80.15
2022-12-03T03:41:51.036Z,80.13
2022-12-03T03:44:19.619Z,81.78
2022-12-03T03:46:49.056Z,85.39
2022-12-03T03:49:17.676Z,86.20
2022-12-03T03:51:45.705Z,87.34
2022-12-03T03:54:14.956Z,88.66
2022-12-03T03:56:43.329Z,88.77
2022-12-03T03:59:14.238Z,88.39
2022-12-03T04:01:45.066Z,88.52
2022-12-03T04:04:21.083Z,87.20
2022-12-03T04:06:49.495Z,86.21
2022-12-03T04:09:17.914Z,86.46
2022-12-03T04:12:04.438Z,85.65
2022-12-03T04:14:32.926Z,85.56
2022-12-03T04:17:01.147Z,86.37
2022-12-03T04:19:30.747Z,85.94
2022-12-03T04:22:17.811Z,86.10
2022-12-03T04:24:47.616Z,87.02
2022-12-03T04:27:34.006Z,87.53
2022-12-03T04:30:02.418Z,86.57
2022-12-03T04:32:49.037Z,86.41
2022-12-03T04:35:35.877Z,86.15
2022-12-03T04:38:04.078Z,86.85
2022-12-03T04:40:50.946Z,86.99
2022-12-03T04:43:18.916Z,87.51
2022-12-03T04:45:48.346Z,86.60
2022-12-03T04:48:16.610Z,86.70
2022-12-03T04:50:44.937Z,85.89
2022-12-03T04:53:13.165Z,86.54
2022-12-03T04:55:41.718Z,86.59
2022-12-03T04:58:10.626Z,87.26
2022-12-03T05:00:40.213Z,87.35
2022-12-03T05:03:08.405Z,87.96
2022-12-03T05:05:36.842Z,88.29
2022-12-03T05:08:05.151Z,88.32
2022-12-03T05:10:33.861Z,89.35
2022-12-03T05:13:01.869Z,90.07
2022-12-03T05:15:30.226Z,89.67
2022-12-03T05:17:58.333Z,89.71
2022-12-03T05:20:41.648Z,89.03
2022-12-03T05:23:11.945Z,88.91
2022-12-03T05:25:41.778Z,88.93
2022-12-03T05:28:09.977Z,88.69
2022-12-03T05:30:38.373Z,89.44
2022-12-03T05:33:06.416Z,89.49
2022-12-03T05:35:34.905Z,89.97
2022-12-03T05:38:03.774Z,89.00
2022-12-03T05:40:32.166Z,88.13
2022-12-03T05:43:02.167Z,87.81
2022-12-03T05:45:32.106Z,87.39
2022-12-03T05:48:01.298Z,87.22
2022-12-03T05:50:32.567Z,86.50
2022-12-03T05:53:16.808Z,86.03
2022-12-03T05:55:45.239Z,85.41
2022-12-03T05:58:13.285Z,85.89
2022-12-03T06:00:43.043Z,85.29
2022-12-03T06:03:11.470Z,84.65
2022-12-03T06:05:40.215Z,85.29
2022-12-03T06:08:08.335Z,86.20
2022-12-03T06:10:37.840Z,85.80
2022-12-03T06:13:05.865Z,85.83
2022-12-03T06:15:38.762Z,85.54
2022-12-03T06:18:10.622Z,85.42
2022-12-03T06:20:39.631Z,85.25
2022-12-03T06:23:07.610Z,86.25
2022-12-03T06:25:35.949Z,85.85
2022-12-03T06:28:04.118Z,85.94
2022-12-03T06:30:34.657Z,85.89
2022-12-03T06:33:02.790Z,86.34
2022-12-03T06:35:31.132Z,86.20
2022-12-03T06:37:59.211Z,85.93
2022-12-03T06:40:27.986Z,86.23
2022-12-03T06:42:56.014Z,87.17
2022-12-03T06:45:24.433Z,86.80
2022-12-03T06:47:52.555Z,86.52
2022-12-03T06:50:22.053Z,86.86
2022-12-03T06:52:50.164Z,87.52
2022-12-03T06:55:18.502Z,87.40
2022-12-03T06:57:46.440Z,87.94
2022-12-03T07:00:15.387Z,87.41
2022-12-03T07:02:45.876Z,87.42
2022-12-03T07:05:15.378Z,87.19
2022-12-03T07:07:43.514Z,87.26
2022-12-03T07:10:15.151Z,87.49
2022-12-03T07:12:43.166Z,87.55
2022-12-03T07:15:12.589Z,88.12
2022-12-03T07:17:40.718Z,87.20
2022-12-03T07:20:10.552Z,87.42
2022-12-03T07:22:38.838Z,87.23
2022-12-03T07:25:08.558Z,86.37
2022-12-03T07:27:36.529Z,85.95
2022-12-03T07:30:09.669Z,85.25
2022-12-03T07:32:37.767Z,84.95
2022-12-03T07:35:08.059Z,84.45
2022-12-03T07:37:36.110Z,82.95
2022-12-03T07:40:05.930Z,82.81
2022-12-03T07:42:34.021Z,83.34
2022-12-03T07:45:02.602Z,83.43
2022-12-03T07:47:30.699Z,83.52
2022-12-03T07:49:59.043Z,82.44
2022-12-03T07:52:27.088Z,82.17
2022-12-03T07:54:55.715Z,81.07
2022-12-03T07:57:24.449Z,80.66
2022-12-03T07:59:53.969Z,80.18
2022-12-03T08:02:22.206Z,79.56
2022-12-03T08:04:51.422Z,79.38
2022-12-03T08:07:24.755Z,78.95
2022-12-03T08:09:55.421Z,78.68
2022-12-03T08:12:40.453Z,78.63
2022-12-03T08:15:18.232Z,78.15
2022-12-03T08:17:48.119Z,77.84
2022-12-03T08:20:20.928Z,77.75
2022-12-03T08:22:51.579Z,77.08
2022-12-03T08:25:31.892Z,77.34
2022-12-03T08:28:21.929Z,76.87
2022-12-03T08:31:02.263Z,76.37
2022-12-03T08:33:35.691Z,75.88
2022-12-03T08:36:15.229Z,75.54
2022-12-03T08:38:59.618Z,75.54
2022-12-03T08:41:48.964Z,75.44
2022-12-03T08:44:28.170Z,75.03
2022-12-03T08:47:13.171Z,74.54
2022-12-03T08:49:41.760Z,74.45
2022-12-03T08:52:15.543Z,73.54
2022-12-03T08:54:46.290Z,74.02
2022-12-03T08:57:35.008Z,72.50
2022-12-03T09:00:20.617Z,72.25
2022-12-03T09:02:52.981Z,71.80
2022-12-03T09:05:28.837Z,71.30
2022-12-03T09:07:57.383Z,70.58
2022-12-03T09:10:25.565Z,68.70
2022-12-03T09:12:54.008Z,67.96
2022-12-03T09:15:21.967Z,67.21
2022-12-03T09:17:51.658Z,67.92
2022-12-03T09:20:19.843Z,68.36
2022-12-03T09:22:48.730Z,67.78
2022-12-03T09:25:17.391Z,67.77
2022-12-03T09:27:46.211Z,67.39
2022-12-03T09:30:14.359Z,67.22
2022-12-03T09:32:44.079Z,66.90
2022-12-03T09:35:12.173Z,66.92
2022-12-03T09:37:41.478Z,66.21
2022-12-03T09:40:11.296Z,66.00
2022-12-03T09:42:40.448Z,66.08
2022-12-03T09:45:12.622Z,65.75
2022-12-03T09:47:46.087Z,65.51
2022-12-03T09:50:16.479Z,65.40
2022-12-03T09:52:45.729Z,64.69
2022-12-03T09:55:24.040Z,64.28
2022-12-03T09:57:54.060Z,64.45
2022-12-03T10:00:26.242Z,65.30
2022-12-03T10:02:59.680Z,64.56
2022-12-03T10:05:29.752Z,65.23
2022-12-03T10:08:07.250Z,65.42
2022-12-03T10:10:36.951Z,65.84
2022-12-03T10:13:06.732Z,64.95
2022-12-03T10:15:34.830Z,65.04
2022-12-03T10:18:18.421Z,65.38
2022-12-03T10:20:46.780Z,65.77
2022-12-03T10:23:27.757Z,66.27
2022-12-03T10:25:57.279Z,65.70
2022-12-03T10:28:47.402Z,66.05
2022-12-03T10:31:15.922Z,67.01
2022-12-03T10:33:47.463Z,65.89
2022-12-03T10:36:21.614Z,65.38
2022-12-03T10:39:16.680Z,66.15
2022-12-03T10:41:45.486Z,66.04
2022-12-03T10:44:22.929Z,65.03
2022-12-03T10:47:21.291Z,64.16
2022-12-03T10:50:03.553Z,63.53
2022-12-03T10:52:32.539Z,63.55
2022-12-03T10:55:02.118Z,63.58
2022-12-03T10:57:30.260Z,63.36
2022-12-03T10:59:58.900Z,63.21
2022-12-03T11:02:26.970Z,63.09
2022-12-03T11:04:55.865Z,63.08
2022-12-03T11:07:26.405Z,63.80
2022-12-03T11:09:56.969Z,63.64
2022-12-03T11:12:28.042Z,64.13
2022-12-03T11:15:05.307Z,64.06
2022-12-03T11:17:50.860Z,64.08
2022-12-03T11:20:24.782Z,63.94
2022-12-03T11:22:56.944Z,64.36
2022-12-03T11:25:26.773Z,64.81
2022-12-03T11:28:13.887Z,64.31
2022-12-03T11:30:51.615Z,64.33
2022-12-03T11:33:35.782Z,63.49
2022-12-03T11:36:04.147Z,63.29
2022-12-03T11:38:42.662Z,63.90
2022-12-03T11:41:24.319Z,63.37
2022-12-03T11:43:52.323Z,64.47
2022-12-03T11:46:37.222Z,63.96
2022-12-03T11:49:25.359Z,63.28
2022-12-03T11:51:53.742Z,63.19
2022-12-03T11:54:23.623Z,63.32
2022-12-03T11:56:56.339Z,62.77
2022-12-03T11:59:24.360Z,62.80
2022-12-03T12:01:52.629Z,62.16
2022-12-03T12:04:36.264Z,62.26
2022-12-03T12:07:04.688Z,62.03
2022-12-03T12:09:49.470Z,61.86
2022-12-03T12:12:30.963Z,62.00
2022-12-03T12:14:59.983Z,62.10
2022-12-03T12:17:33.984Z,61.71
2022-12-03T12:20:27.809Z,61.63
2022-12-03T12:22:56.423Z,61.02
2022-12-03T12:25:30.641Z,61.18
2022-12-03T12:27:58.960Z,61.18
2022-12-03T12:30:27.008Z,61.52
2022-12-03T12:33:10.469Z,61.93
2022-12-03T12:35:38.582Z,62.40
2022-12-03T12:38:06.957Z,63.37
2022-12-03T12:40:37.082Z,64.72
2022-12-03T12:43:16.420Z,66.23
2022-12-03T12:45:47.348Z,67.89
2022-12-03T12:48:32.158Z,68.28
2022-12-03T12:51:12.272Z,69.78
2022-12-03T12:53:43.165Z,71.71
2022-12-03T12:56:23.875Z,71.06
2022-12-03T12:58:53.636Z,71.33
2022-12-03T13:01:28.988Z,72.08
2022-12-03T13:03:58.631Z,71.38
2022-12-03T13:06:29.112Z,72.16
2022-12-03T13:09:01.420Z,72.17
2022-12-03T13:11:46.039Z,71.80
2022-12-03T13:14:19.456Z,71.64
2022-12-03T13:16:50.179Z,71.31
2022-12-03T13:19:23.257Z,72.47
2022-12-03T13:21:56.727Z,71.50
2022-12-03T13:24:34.060Z,71.51
2022-12-03T13:27:20.325Z,70.78
2022-12-03T13:30:14.141Z,69.16
2022-12-03T13:32:43.105Z,68.55
2022-12-03T13:35:30.622Z,68.71
2022-12-03T13:37:59.529Z,69.53
2022-12-03T13:40:31.563Z,69.18
2022-12-03T13:42:59.847Z,70.21
2022-12-03T13:45:45.533Z,69.08
2022-12-03T13:48:25.893Z,69.14
2022-12-03T13:50:54.731Z,69.64
2022-12-03T13:53:25.910Z,69.46
2022-12-03T13:56:15.864Z,68.76
2022-12-03T13:58:43.980Z,68.43
2022-12-03T14:01:12.420Z,68.42
2022-12-03T14:03:40.551Z,68.54
2022-12-03T14:06:09.097Z,68.17
2022-12-03T14:08:38.522Z,66.93
2022-12-03T14:11:08.543Z,67.26
2022-12-03T14:13:37.512Z,67.46
2022-12-03T14:16:06.110Z,67.27
2022-12-03T14:18:35.731Z,67.80
2022-12-03T14:21:04.130Z,67.56
2022-12-03T14:23:32.176Z,67.37
2022-12-03T14:26:00.780Z,67.70
2022-12-03T14:28:28.797Z,67.29
2022-12-03T14:30:57.279Z,66.84
2022-12-03T14:33:28.350Z,67.60
2022-12-03T14:35:57.702Z,67.21
2022-12-03T14:38:25.781Z,67.22
2022-12-03T14:40:54.461Z,66.76
2022-12-03T14:43:22.550Z,66.68
2022-12-03T14:45:52.105Z,66.91
2022-12-03T14:48:22.602Z,67.11
2022-12-03T14:50:51.154Z,67.13
2022-12-03T14:53:25.596Z,67.21
2022-12-03T14:55:57.230Z,66.88
2022-12-03T14:58:27.151Z,66.26
2022-12-03T15:00:55.638Z,67.21
2022-12-03T15:03:23.691Z,67.62
2022-12-03T15:05:52.011Z,68.33
2022-12-03T15:08:20.268Z,68.29
2022-12-03T15:10:48.884Z,67.62
2022-12-03T15:13:16.970Z,67.88
2022-12-03T15:15:45.525Z,67.89
2022-12-03T15:18:13.631Z,68.48
2022-12-03T15:20:41.971Z,68.24
2022-12-03T15:23:14.324Z,68.47
2022-12-03T15:25:43.200Z,67.63
2022-12-03T15:28:11.303Z,68.10
2022-12-03T15:30:39.782Z,68.31
2022-12-03T15:33:08.500Z,68.34
2022-12-03T15:35:37.178Z,68.43
2022-12-03T15:38:05.342Z,68.66
2022-12-03T15:40:34.761Z,69.01
2022-12-03T15:43:02.801Z,69.40
2022-12-03T15:45:32.679Z,69.41
2022-12-03T15:48:01.461Z,69.58
2022-12-03T15:50:30.269Z,70.25
2022-12-03T15:52:58.921Z,70.19
2022-12-03T15:55:27.380Z,70.32
2022-12-03T15:57:55.584Z,70.14
2022-12-03T16:00:24.203Z,70.07
2022-12-03T16:02:53.061Z,70.17
2022-12-03T16:05:21.663Z,70.33
2022-12-03T16:07:49.864Z,70.43
2022-12-03T16:10:21.630Z,70.49
2022-12-03T16:12:49.804Z,70.44
2022-12-03T16:15:21.002Z,70.35
2022-12-03T16:17:53.387Z,70.89
2022-12-03T16:20:21.851Z,71.24
2022-12-03T16:22:49.911Z,71.69
2022-12-03T16:25:18.741Z,71.81
2022-12-03T16:27:46.791Z,71.62
2022-12-03T16:30:15.421Z,71.68
2022-12-03T16:32:43.651Z,71.27
2022-12-03T16:35:12.010Z,71.11
2022-12-03T16:37:40.081Z,71.54
2022-12-03T16:40:09.771Z,71.03
2022-12-03T16:42:37.892Z,71.39
2022-12-03T16:45:10.134Z,71.22
2022-12-03T16:47:38.704Z,71.70
2022-12-03T16:50:10.690Z,71.50
2022-12-03T16:52:42.951Z,71.66
2022-12-03T16:55:12.410Z,71.92
2022-12-03T16:57:40.424Z,71.76
2022-12-03T17:00:09.480Z,71.59
2022-12-03T17:02:37.756Z,71.97
2022-12-03T17:05:06.852Z,72.27
2022-12-03T17:07:34.985Z,73.52
2022-12-03T17:10:04.692Z,74.33
2022-12-03T17:13:01.205Z,75.14
2022-12-03T17:15:23.455Z,75.55
2022-12-03T17:17:51.692Z,76.43
2022-12-03T17:20:20.523Z,76.82
2022-12-03T17:22:48.892Z,77.16
2022-12-03T17:25:17.705Z,78.11
2022-12-03T17:27:46.181Z,78.03
2022-12-03T17:30:16.032Z,78.46
2022-12-03T17:32:44.544Z,80.96
2022-12-03T17:35:13.544Z,82.32
2022-12-03T17:37:41.701Z,83.53
2022-12-03T17:40:13.414Z,84.69
2022-12-03T17:42:42.060Z,86.00
2022-12-03T17:45:11.290Z,88.93
2022-12-03T17:47:39.773Z,89.64
2022-12-03T17:50:09.291Z,90.05
2022-12-03T17:52:37.366Z,89.61
2022-12-03T17:55:14.176Z,90.70
2022-12-03T17:57:46.329Z,91.27
2022-12-03T18:00:15.096Z,91.16
2022-12-03T18:02:43.298Z,91.12
2022-12-03T18:05:11.892Z,91.52
2022-12-03T18:07:40.264Z,91.72
2022-12-03T18:10:08.877Z,91.67
2022-12-03T18:12:37.034Z,91.51
2022-12-03T18:15:05.838Z,91.39
2022-12-03T18:17:34.015Z,92.47
2022-12-03T18:20:03.364Z,91.45
2022-12-03T18:22:31.666Z,91.68
2022-12-03T18:25:00.359Z,92.39
2022-12-03T18:27:28.440Z,92.33
2022-12-03T18:29:57.524Z,93.79
2022-12-03T18:32:29.334Z,91.56
2022-12-03T18:34:59.702Z,91.80
2022-12-03T18:37:29.537Z,90.40
2022-12-03T18:39:59.133Z,92.22
2022-12-03T18:42:27.716Z,90.78
2022-12-03T18:44:57.319Z,90.72
2022-12-03T18:47:28.732Z,92.52
2022-12-03T18:49:57.790Z,91.71
2022-12-03T18:52:26.344Z,90.89
2022-12-03T18:54:57.112Z,91.50
2022-12-03T18:57:25.171Z,92.12
2022-12-03T18:59:53.884Z,92.40
2022-12-03T19:05:12.232Z,92.10
2022-12-03T19:07:40.530Z,93.21
2022-12-03T19:10:11.422Z,92.73
2022-12-03T19:12:39.911Z,93.35
2022-12-03T19:15:09.290Z,93.78
2022-12-03T19:17:39.991Z,94.01
2022-12-03T19:20:12.005Z,95.77
2022-12-03T19:22:40.464Z,95.38
2022-12-03T19:25:09.809Z,95.75
2022-12-03T19:27:38.344Z,95.36
2022-12-03T19:30:09.375Z,95.22
2022-12-03T19:32:37.742Z,95.38
2022-12-03T19:35:07.942Z,96.47
2022-12-03T19:37:36.404Z,96.01
2022-12-03T19:40:06.054Z,96.27
2022-12-03T19:42:34.383Z,95.54
2022-12-03T19:45:03.313Z,95.43
2022-12-03T19:47:33.734Z,94.83
2022-12-03T19:50:03.034Z,94.96
2022-12-03T19:52:31.433Z,94.84
2022-12-03T19:55:00.098Z,95.39
2022-12-03T19:57:29.027Z,96.11
2022-12-03T19:59:57.918Z,95.74
2022-12-03T20:02:26.613Z,95.33
2022-12-03T20:04:55.504Z,95.85
2022-12-03T20:07:23.815Z,94.87
2022-12-03T20:09:53.037Z,94.74
2022-12-03T20:12:21.807Z,95.00
2022-12-03T20:14:52.125Z,95.63
2022-12-03T20:17:20.535Z,95.40
2022-12-03T20:19:49.507Z,95.58
2022-12-03T20:22:17.806Z,95.06
2022-12-03T20:24:46.625Z,95.10
2022-12-03T20:27:19.637Z,93.88
2022-12-03T20:29:51.480Z,93.10
2022-12-03T20:32:19.941Z,93.31
2022-12-03T20:34:50.195Z,92.15
2022-12-03T20:37:18.508Z,91.13
2022-12-03T20:39:50.353Z,91.56
2022-12-03T20:42:18.705Z,91.51
2022-12-03T20:44:47.525Z,91.74
2022-12-03T20:47:16.704Z,91.72
2022-12-03T20:49:46.165Z,92.25
2022-12-03T20:52:14.938Z,92.17
2022-12-03T20:54:45.275Z,93.03
2022-12-03T20:57:13.536Z,93.58
2022-12-03T20:59:42.249Z,94.10
2022-12-03T21:02:11.371Z,93.97
2022-12-03T21:04:40.387Z,93.18
2022-12-03T21:07:08.821Z,92.80
2022-12-03T21:09:37.826Z,93.00
2022-12-03T21:12:06.247Z,93.00
2022-12-03T21:14:36.187Z,93.50
2022-12-03T21:17:09.089Z,92.81
2022-12-03T21:19:38.727Z,92.66
2022-12-03T21:22:07.556Z,92.28
2022-12-03T21:24:36.776Z,91.67
2022-12-03T21:27:05.191Z,91.37
2022-12-03T21:29:33.874Z,91.04
2022-12-03T21:32:02.161Z,91.41
2022-12-03T21:34:36.081Z,90.50
2022-12-03T21:37:05.246Z,91.07
2022-12-03T21:39:34.027Z,90.35
2022-12-03T21:42:18.791Z,89.30
2022-12-03T21:44:52.174Z,90.51
2022-12-03T21:47:20.845Z,89.53
2022-12-03T21:49:49.668Z,90.11
2022-12-03T21:52:18.100Z,89.73
2022-12-03T21:54:46.854Z,89.73
2022-12-03T21:57:15.285Z,89.02
2022-12-03T21:59:43.868Z,88.35
2022-12-03T22:02:13.081Z,88.67
2022-12-03T22:04:41.894Z,88.16
2022-12-03T22:07:10.363Z,88.22
2022-12-03T22:09:39.706Z,88.10
2022-12-03T22:12:08.185Z,88.49
2022-12-03T22:14:38.169Z,87.95
2022-12-03T22:17:06.455Z,88.22
2022-12-03T22:19:35.066Z,88.69
2022-12-03T22:22:03.402Z,89.21
2022-12-03T22:24:32.132Z,88.82
2022-12-03T22:27:00.445Z,89.37
2022-12-03T22:29:29.233Z,88.76
2022-12-03T22:31:57.572Z,89.13
2022-12-03T22:34:26.229Z,88.86
2022-12-03T22:36:54.481Z,89.83
2022-12-03T22:39:23.144Z,89.63
2022-12-03T22:41:51.620Z,89.33
2022-12-03T22:44:20.466Z,89.64
2022-12-03T22:46:48.839Z,90.11
2022-12-03T22:49:17.620Z,89.14
2022-12-03T22:51:47.555Z,88.58
2022-12-03T22:54:19.431Z,88.93
2022-12-03T22:56:52.130Z,88.81
2022-12-03T22:59:20.714Z,89.59
2022-12-03T23:01:49.046Z,89.92
2022-12-03T23:04:19.075Z,90.46
2022-12-03T23:06:47.453Z,90.26
2022-12-03T23:09:17.256Z,89.96
2022-12-03T23:11:45.839Z,89.64
2022-12-03T23:14:14.537Z,89.98
2022-12-03T23:16:42.700Z,89.88
2022-12-03T23:19:11.620Z,89.48
2022-12-03T23:21:39.794Z,89.12
2022-12-03T23:24:10.528Z,88.62
2022-12-03T23:26:39.745Z,88.89
2022-12-03T23:29:09.347Z,88.53
2022-12-03T23:31:37.611Z,89.12
2022-12-03T23:34:07.827Z,88.83
2022-12-03T23:36:36.148Z,88.90
2022-12-03T23:39:04.607Z,89.00
2022-12-03T23:41:32.643Z,88.70
2022-12-03T23:44:02.049Z,88.47
2022-12-03T23:46:30.301Z,88.88
2022-12-03T23:49:00.369Z,88.40
2022-12-03T23:51:28.652Z,89.13
2022-12-03T23:53:57.209Z,89.06
2022-12-03T23:56:30.802Z,89.18
2022-12-03T23:58:59.571Z,88.67
